To NAV CANADA Home Page Login to a new session Search on AWWS site Feedback and Comments Disclaimer Vers la page française équivalente Tips FAQ What's new on the site To the Forecasts and Observations / NOTAM section To "File a Flight Plan" website Publications and other links Update of the User's profile FIC Telephone Numbers My Weather Data Folder Route Weather Data Regional Weather Data Local Weather Data To the Forecasts and Observations / NOTAM section
Request Generated 01/17/2017 at 04:44:10 UTC . Weather information available at that time is displayed.

METAR/TAF

SLAVE LAKE/AB    (show WxCam)

SPECI CYZH 170440Z AUTO 14003KT 090V170 9SM -RA OVC070 01/M03 A2932
RMK SLP959=
SPECI CYZH 170433Z AUTO 12005KT 080V140 9SM OVC070 01/M03 A2932 RMK
SLP959=
SPECI CYZH 170422Z AUTO 10006KT 060V140 9SM -RA BKN070 OVC090 01/M04
A2932 RMK PRESFR SLP958=
METAR CYZH 170400Z AUTO 15003KT 090V190 9SM SCT070 OVC089 01/M03
A2934 RMK SLP965=
METAR CYZH 170300Z AUTO 10005KT 040V120 9SM FEW150 01/M04 A2937 RMK
SLP973=
METAR CYZH 170200Z AUTO 11006KT 070V130 9SM FEW140 SCT190 SCT210
00/M04 A2941 RMK SLP988=

TAF CYZH 170038Z 1701/1713 VRB03KT P6SM BKN150
FM170500 VRB03KT P6SM SCT030 OVC080 TEMPO 1705/1711 P6SM -RA
OVC030
FM171100 27010KT P6SM SCT080 BKN200
RMK FCST BASED ON AUTO OBS. NXT FCST BY 170700Z=
Your time UTC time
Weather data provided by Environment Canada and NAV CANADA